Time;durP1;ratioP1;P1;durP2;ratioP2;P2;SDS_P1;SDS_P2;PMS_P1;PMS_P2;Temp;Humidity;BMP_temperature;BMP_pressure;BME280_temperature;BME280_humidity;BME280_pressure;Samples;Min_cycle;Max_cycle;Signal;HPM_P1;HPM_P2
2023/02/04 03:01:20;;;;;;;13.80;13.00;;;6.30;99.90;;;;;;5607858;23;20279;-78
2023/02/04 03:03:51;;;;;;;14.03;13.23;;;6.30;99.90;;;;;;4905466;29;20202;-78
2023/02/04 03:06:23;;;;;;;13.90;13.07;;;6.30;99.90;;;;;;4907135;29;20212;-78
2023/02/04 03:08:54;;;;;;;14.20;13.30;;;6.30;99.90;;;;;;4905842;29;20274;-78
2023/02/04 03:11:20;;;;;;;13.57;12.87;;;6.30;99.90;;;;;;4907899;29;20233;-78
2023/02/04 03:13:48;;;;;;;14.00;13.10;;;6.30;99.90;;;;;;4918075;29;20223;-77
2023/02/04 03:16:15;;;;;;;13.67;12.87;;;6.30;99.90;;;;;;4913687;29;20731;-78
2023/02/04 03:18:43;;;;;;;13.77;12.97;;;6.30;99.90;;;;;;4909182;29;20202;-78
2023/02/04 03:21:12;;;;;;;13.47;12.67;;;6.30;99.90;;;;;;4907804;29;20792;-77
2023/02/04 03:23:38;;;;;;;13.37;12.63;;;6.30;99.90;;;;;;4906042;29;20194;-78
2023/02/04 03:26:06;;;;;;;13.30;12.50;;;6.30;99.90;;;;;;4915645;29;20210;-77
2023/02/04 03:28:33;;;;;;;13.60;12.70;;;6.30;99.90;;;;;;4906880;29;20222;-77
2023/02/04 03:31:00;;;;;;;13.43;12.73;;;6.30;99.90;;;;;;4904591;29;20640;-78
2023/02/04 03:33:30;;;;;;;13.23;12.43;;;6.30;99.90;;;;;;4906395;29;20260;-78
2023/02/04 03:35:58;;;;;;;13.70;12.83;;;6.30;99.90;;;;;;4906641;29;20701;-77
2023/02/04 03:38:25;;;;;;;13.50;12.80;;;6.30;99.90;;;;;;4908465;29;20206;-78
2023/02/04 03:40:52;;;;;;;13.27;12.57;;;6.30;99.90;;;;;;4921881;29;20284;-77
2023/02/04 03:43:19;;;;;;;13.63;12.83;;;6.30;99.90;;;;;;4902656;29;20305;-77
2023/02/04 03:45:45;;;;;;;13.57;12.70;;;6.30;99.90;;;;;;4909909;29;20671;-77
2023/02/04 03:48:12;;;;;;;14.10;13.10;;;6.30;99.90;;;;;;4906929;29;20210;-77
2023/02/04 03:50:39;;;;;;;13.40;12.70;;;6.30;99.90;;;;;;4904162;29;20198;-78
2023/02/04 03:53:08;;;;;;;13.37;12.57;;;6.30;99.90;;;;;;4919189;29;20262;-78
2023/02/04 03:55:34;;;;;;;13.77;12.97;;;6.30;99.90;;;;;;4909189;29;20608;-78
2023/02/04 03:58:01;;;;;;;13.50;12.80;;;6.30;99.90;;;;;;4923077;29;20574;-78
2023/02/04 04:00:28;;;;;;;14.33;13.50;;;6.30;99.90;;;;;;4908682;29;20240;-77
2023/02/04 04:02:56;;;;;;;13.97;13.17;;;6.30;99.90;;;;;;4910424;29;20214;-78
2023/02/04 04:05:23;;;;;;;15.20;13.97;;;6.30;99.90;;;;;;4920176;29;20228;-77
2023/02/04 04:07:50;;;;;;;14.60;13.60;;;6.20;99.90;;;;;;4904495;29;20591;-78
2023/02/04 04:10:18;;;;;;;15.13;14.23;;;6.20;99.90;;;;;;4920768;29;20276;-78
2023/02/04 04:12:45;;;;;;;14.70;13.80;;;6.10;99.90;;;;;;4907988;29;20307;-77
2023/02/04 04:15:12;;;;;;;15.17;14.17;;;6.20;99.90;;;;;;4907369;29;20204;-77
2023/02/04 04:17:38;;;;;;;14.13;13.33;;;6.10;99.90;;;;;;4904572;29;20194;-78
2023/02/04 04:20:06;;;;;;;14.60;13.70;;;6.10;99.90;;;;;;4900269;29;20248;-78
2023/02/04 04:22:33;;;;;;;14.50;13.60;;;6.10;99.90;;;;;;4905505;29;20219;-78
2023/02/04 04:25:00;;;;;;;14.80;14.00;;;6.20;99.90;;;;;;4906299;29;20206;-78
2023/02/04 04:27:29;;;;;;;15.23;14.43;;;6.10;99.90;;;;;;4900005;29;20244;-78
2023/02/04 04:29:55;;;;;;;15.53;14.20;;;6.10;99.90;;;;;;4905479;29;20547;-78
2023/02/04 04:32:22;;;;;;;15.53;14.53;;;6.10;99.90;;;;;;4901972;29;20316;-78
2023/02/04 04:34:49;;;;;;;15.77;14.40;;;6.10;99.90;;;;;;4909168;29;20265;-78
2023/02/04 04:37:16;;;;;;;16.03;15.03;;;6.10;99.90;;;;;;4906165;29;20630;-77
2023/02/04 04:39:43;;;;;;;15.30;14.43;;;6.10;99.90;;;;;;4903475;29;20235;-78
2023/02/04 04:42:09;;;;;;;15.43;14.53;;;6.10;99.90;;;;;;4905734;29;20221;-77
2023/02/04 04:44:38;;;;;;;15.07;14.27;;;6.10;99.90;;;;;;4906628;29;20647;-77
2023/02/04 04:47:04;;;;;;;15.20;14.30;;;6.10;99.90;;;;;;4907580;29;20700;-77
2023/02/04 04:49:31;;;;;;;16.00;14.90;;;6.10;99.90;;;;;;4904048;29;20658;-77
2023/02/04 04:51:58;;;;;;;15.43;14.53;;;6.10;99.90;;;;;;4908147;29;20266;-77
2023/02/04 04:54:25;;;;;;;15.40;14.60;;;6.10;99.90;;;;;;4911252;29;20206;-78
2023/02/04 04:56:52;;;;;;;15.47;14.67;;;6.10;99.90;;;;;;4906120;29;20236;-77
2023/02/04 04:59:19;;;;;;;16.47;15.17;;;6.00;99.90;;;;;;4906987;29;20643;-78
2023/02/04 05:01:47;;;;;;;16.03;15.13;;;6.00;99.90;;;;;;4904255;29;20289;-78
2023/02/04 05:04:14;;;;;;;15.33;14.43;;;6.00;99.90;;;;;;4906406;29;20210;-77
2023/02/04 05:06:40;;;;;;;15.10;14.30;;;6.00;99.90;;;;;;4902175;29;20636;-78
2023/02/04 05:09:08;;;;;;;15.70;14.70;;;6.00;99.90;;;;;;4906532;29;20275;-77
2023/02/04 05:11:35;;;;;;;15.80;14.90;;;6.00;99.90;;;;;;4903811;29;20283;-81
2023/02/04 05:14:02;;;;;;;16.10;15.20;;;6.00;99.90;;;;;;4903534;29;20212;-78
2023/02/04 05:16:29;;;;;;;15.80;14.90;;;6.00;99.90;;;;;;4902909;29;21317;-80
2023/02/04 05:18:57;;;;;;;15.30;14.40;;;6.00;99.90;;;;;;4896378;29;20563;-80
2023/02/04 05:21:24;;;;;;;15.33;14.33;;;6.00;99.90;;;;;;4900992;29;20257;-80
2023/02/04 05:23:51;;;;;;;15.20;14.33;;;5.90;99.90;;;;;;4908393;29;20212;-81
2023/02/04 05:26:17;;;;;;;16.33;15.23;;;6.00;99.90;;;;;;4913333;29;20280;-80
2023/02/04 05:28:44;;;;;;;15.80;14.90;;;6.00;99.90;;;;;;4909223;29;20232;-81
2023/02/04 05:31:11;;;;;;;15.90;15.00;;;6.00;99.90;;;;;;4917202;29;20294;-81
2023/02/04 05:33:38;;;;;;;16.57;15.57;;;6.00;99.90;;;;;;4909513;29;20633;-81
2023/02/04 05:36:06;;;;;;;16.13;15.23;;;5.90;99.90;;;;;;4917518;29;20205;-81
2023/02/04 05:38:33;;;;;;;16.00;15.10;;;5.90;99.90;;;;;;4898093;29;20313;-80
2023/02/04 05:41:00;;;;;;;15.90;15.00;;;5.90;99.90;;;;;;4907270;29;20745;-82
2023/02/04 05:43:27;;;;;;;15.80;14.87;;;5.90;99.90;;;;;;4905113;29;20206;-77
2023/02/04 05:45:54;;;;;;;15.63;14.83;;;5.90;99.90;;;;;;4909503;29;20212;-77
2023/02/04 05:48:20;;;;;;;15.57;14.77;;;6.00;99.90;;;;;;4904503;29;20273;-76
2023/02/04 05:50:47;;;;;;;15.73;14.77;;;6.00;99.90;;;;;;4906574;29;20662;-76
2023/02/04 05:53:15;;;;;;;16.27;15.27;;;5.90;99.90;;;;;;4907674;29;20625;-78
2023/02/04 05:55:42;;;;;;;17.17;15.97;;;5.90;99.90;;;;;;4920239;29;20225;-77
2023/02/04 05:58:09;;;;;;;16.30;15.30;;;5.90;99.90;;;;;;4906353;29;20222;-77
2023/02/04 06:00:36;;;;;;;16.40;15.20;;;5.90;99.90;;;;;;4907286;29;20233;-77
2023/02/04 06:03:03;;;;;;;16.40;15.30;;;5.90;99.90;;;;;;4911528;29;20230;-77
2023/02/04 06:05:29;;;;;;;15.33;14.43;;;5.90;99.90;;;;;;4915590;29;20201;-77
2023/02/04 06:07:56;;;;;;;15.60;14.70;;;5.80;99.90;;;;;;4906823;29;20232;-77
2023/02/04 06:10:24;;;;;;;16.20;15.20;;;5.80;99.90;;;;;;4913851;29;20294;-77
2023/02/04 06:12:51;;;;;;;15.60;14.60;;;5.80;99.90;;;;;;4907471;29;20201;-77
2023/02/04 06:15:19;;;;;;;15.70;14.80;;;5.80;99.90;;;;;;4910953;29;20621;-78
2023/02/04 06:17:46;;;;;;;15.30;14.40;;;5.70;99.90;;;;;;4909536;29;20249;-78
2023/02/04 06:20:14;;;;;;;16.07;15.17;;;5.70;99.90;;;;;;4897527;29;20270;-81
2023/02/04 06:22:41;;;;;;;15.53;14.57;;;5.70;99.90;;;;;;4893185;29;20228;-81
2023/02/04 06:25:08;;;;;;;15.80;14.90;;;5.70;99.90;;;;;;4930773;29;20725;-81
2023/02/04 06:27:37;;;;;;;15.77;14.87;;;5.70;99.90;;;;;;4914869;29;20206;-81
2023/02/04 06:30:04;;;;;;;16.90;15.60;;;5.70;99.90;;;;;;4900156;29;20213;-84
2023/02/04 06:32:31;;;;;;;15.93;14.90;;;5.70;99.90;;;;;;4917256;29;20216;-81
2023/02/04 06:34:58;;;;;;;16.03;15.03;;;5.70;99.90;;;;;;4920846;29;20201;-81
2023/02/04 06:37:25;;;;;;;15.93;14.93;;;5.70;99.90;;;;;;4896095;29;20244;-82
2023/02/04 06:39:53;;;;;;;16.73;15.53;;;5.60;99.90;;;;;;4879522;29;20279;-80
2023/02/04 06:42:20;;;;;;;16.10;15.10;;;5.60;99.90;;;;;;4887464;29;20226;-80
2023/02/04 06:44:48;;;;;;;16.33;15.10;;;5.60;99.90;;;;;;4906040;29;20235;-81
2023/02/04 06:47:15;;;;;;;16.80;15.60;;;5.60;99.90;;;;;;4913602;29;20265;-84
2023/02/04 06:49:42;;;;;;;16.30;15.27;;;5.60;99.90;;;;;;4913061;29;20600;-80
2023/02/04 06:52:09;;;;;;;16.63;15.47;;;5.60;99.90;;;;;;4915214;29;20225;-81
2023/02/04 06:54:36;;;;;;;16.90;15.70;;;5.60;99.90;;;;;;4909475;29;20209;-81
2023/02/04 06:57:05;;;;;;;16.30;15.40;;;5.60;99.90;;;;;;4906992;29;20241;-81
2023/02/04 06:59:32;;;;;;;16.57;15.57;;;5.60;99.90;;;;;;4905309;29;20200;-81
2023/02/04 07:02:01;;;;;;;16.93;15.83;;;5.60;99.90;;;;;;4910323;29;20248;-81
2023/02/04 07:04:28;;;;;;;17.50;16.20;;;5.60;99.90;;;;;;4914165;29;20268;-82
2023/02/04 07:06:55;;;;;;;16.00;15.10;;;5.60;99.90;;;;;;4905808;29;20220;-80
2023/02/04 07:09:21;;;;;;;16.63;15.53;;;5.60;99.90;;;;;;4914155;29;20343;-80
2023/02/04 07:11:48;;;;;;;16.17;15.27;;;5.60;99.90;;;;;;4905976;29;20224;-80
2023/02/04 07:14:15;;;;;;;16.87;15.87;;;5.60;99.90;;;;;;4900701;29;20198;-80
2023/02/04 07:16:42;;;;;;;16.40;15.47;;;5.60;99.90;;;;;;4898338;29;20231;-80
2023/02/04 07:19:10;;;;;;;16.57;15.57;;;5.60;99.90;;;;;;4914658;29;20197;-80
2023/02/04 07:21:37;;;;;;;16.70;15.70;;;5.60;99.90;;;;;;4901323;29;20225;-80
2023/02/04 07:24:04;;;;;;;17.40;16.30;;;5.60;99.90;;;;;;4909070;29;20680;-83
2023/02/04 07:26:31;;;;;;;17.83;16.43;;;5.60;99.90;;;;;;4888401;29;20205;-79
2023/02/04 07:28:57;;;;;;;17.63;16.33;;;5.60;99.90;;;;;;4897754;29;20254;-78
2023/02/04 07:31:24;;;;;;;17.50;16.30;;;5.70;99.90;;;;;;4904943;29;20768;-78
2023/02/04 07:33:51;;;;;;;17.47;16.40;;;5.70;99.90;;;;;;4905767;29;20204;-78
2023/02/04 07:36:19;;;;;;;17.03;15.83;;;5.70;99.90;;;;;;4908454;29;20263;-78
2023/02/04 07:38:46;;;;;;;16.07;15.07;;;5.70;99.90;;;;;;4905168;29;20739;-78
2023/02/04 07:41:13;;;;;;;16.73;15.43;;;5.70;99.90;;;;;;4906394;29;20280;-78
2023/02/04 07:43:39;;;;;;;16.70;15.60;;;5.80;99.90;;;;;;4905797;29;20235;-78
2023/02/04 07:46:06;;;;;;;17.50;16.23;;;5.80;99.90;;;;;;4909452;29;20213;-78
2023/02/04 07:48:33;;;;;;;18.20;16.80;;;5.90;99.90;;;;;;4903054;29;20315;-77
2023/02/04 07:51:00;;;;;;;17.37;16.17;;;5.90;99.90;;;;;;4907587;29;20228;-79
2023/02/04 07:53:28;;;;;;;18.13;16.97;;;5.90;99.90;;;;;;4906708;29;20237;-78
2023/02/04 07:55:54;;;;;;;17.63;16.30;;;6.00;99.90;;;;;;4906477;29;20225;-79
2023/02/04 07:58:22;;;;;;;17.60;16.37;;;6.00;99.90;;;;;;4905900;29;20733;-78
2023/02/04 08:00:49;;;;;;;16.50;15.40;;;6.00;99.90;;;;;;4905488;29;20243;-78
2023/02/04 08:03:16;;;;;;;16.67;15.37;;;6.10;99.90;;;;;;4909599;29;20630;-82
2023/02/04 08:05:43;;;;;;;16.40;15.37;;;6.10;99.90;;;;;;4909991;29;20201;-84
2023/02/04 08:08:09;;;;;;;16.50;15.33;;;6.20;99.90;;;;;;4903937;29;20224;-79
2023/02/04 08:10:37;;;;;;;16.53;15.33;;;6.20;99.90;;;;;;4908726;29;20205;-80
2023/02/04 08:13:06;;;;;;;16.47;15.30;;;6.20;99.90;;;;;;4909578;29;20630;-80
2023/02/04 08:15:33;;;;;;;16.47;15.13;;;6.20;99.90;;;;;;4897900;29;20638;-81
2023/02/04 08:18:00;;;;;;;16.77;15.53;;;6.20;99.90;;;;;;4899994;29;20214;-77
2023/02/04 08:20:27;;;;;;;16.40;15.27;;;6.20;99.90;;;;;;4894885;29;20229;-78
2023/02/04 08:22:54;;;;;;;16.90;15.60;;;6.30;99.90;;;;;;4904454;29;20219;-77
2023/02/04 08:25:21;;;;;;;16.27;15.13;;;6.30;99.90;;;;;;4908538;29;20198;-78
2023/02/04 08:27:49;;;;;;;17.83;16.40;;;6.30;99.90;;;;;;4906307;29;20686;-79
2023/02/04 08:30:16;;;;;;;17.33;16.03;;;6.30;99.90;;;;;;4906694;29;20228;-78
2023/02/04 08:32:43;;;;;;;16.90;15.50;;;6.30;99.90;;;;;;4904591;29;20277;-78
2023/02/04 08:35:11;;;;;;;17.43;16.07;;;6.40;99.90;;;;;;4902317;29;20201;-78
2023/02/04 08:37:37;;;;;;;17.37;15.57;;;6.40;99.90;;;;;;4905428;29;20200;-78
2023/02/04 08:40:05;;;;;;;17.67;16.23;;;6.40;99.90;;;;;;4905562;29;20197;-78
2023/02/04 08:42:33;;;;;;;16.30;14.83;;;6.40;99.90;;;;;;4907131;29;20317;-78
2023/02/04 08:45:02;;;;;;;16.83;15.43;;;6.40;99.90;;;;;;4906835;29;20209;-78
2023/02/04 08:47:29;;;;;;;17.93;15.50;;;6.40;99.90;;;;;;4908016;29;20258;-78
2023/02/04 08:49:56;;;;;;;17.23;15.73;;;6.30;99.90;;;;;;4906199;29;20286;-78
2023/02/04 08:52:23;;;;;;;17.43;15.87;;;6.30;99.90;;;;;;4908902;29;20226;-77
2023/02/04 08:54:50;;;;;;;16.50;15.10;;;6.40;99.90;;;;;;4908970;29;20234;-79
2023/02/04 08:57:17;;;;;;;16.70;15.30;;;6.40;99.90;;;;;;4903511;29;20211;-78
2023/02/04 08:59:44;;;;;;;16.77;15.37;;;6.50;99.90;;;;;;4906117;29;20194;-77
2023/02/04 09:02:12;;;;;;;16.30;14.80;;;6.50;99.90;;;;;;4906136;29;20222;-78
2023/02/04 09:04:39;;;;;;;15.63;14.40;;;6.60;99.90;;;;;;4905403;29;20208;-79
2023/02/04 09:07:06;;;;;;;17.93;15.97;;;6.60;99.90;;;;;;4906841;29;20241;-78
2023/02/04 09:09:33;;;;;;;17.23;15.40;;;6.60;99.90;;;;;;4916178;29;20224;-79
2023/02/04 09:12:00;;;;;;;16.40;14.73;;;6.70;99.90;;;;;;4901052;29;20318;-78
2023/02/04 09:14:27;;;;;;;15.53;14.03;;;6.70;99.90;;;;;;4911949;29;20201;-78
2023/02/04 09:16:54;;;;;;;15.43;14.13;;;6.80;99.90;;;;;;4909615;29;20279;-77
2023/02/04 09:19:24;;;;;;;16.63;14.10;;;6.90;99.90;;;;;;4906135;29;20229;-79
2023/02/04 09:21:51;;;;;;;14.77;13.57;;;7.00;99.90;;;;;;4904094;29;20319;-79
2023/02/04 09:24:18;;;;;;;15.23;13.83;;;7.00;99.90;;;;;;4904412;29;20210;-78
2023/02/04 09:26:44;;;;;;;15.57;14.03;;;7.00;99.90;;;;;;4905194;29;20235;-79
2023/02/04 09:29:11;;;;;;;16.30;14.77;;;7.00;99.90;;;;;;4911953;29;20214;-78
2023/02/04 09:31:38;;;;;;;16.07;14.50;;;6.90;99.90;;;;;;4901586;29;20226;-78
2023/02/04 09:34:05;;;;;;;14.80;13.57;;;7.00;99.90;;;;;;4906727;29;20209;-79
2023/02/04 09:36:36;;;;;;;16.13;14.43;;;7.10;99.90;;;;;;4904351;29;20262;-79
2023/02/04 09:39:04;;;;;;;16.07;14.37;;;7.10;99.90;;;;;;4902097;29;20254;-79
2023/02/04 09:41:32;;;;;;;15.43;14.10;;;7.20;99.90;;;;;;4905599;29;20234;-79
2023/02/04 09:44:00;;;;;;;16.47;14.67;;;7.10;99.90;;;;;;4903995;29;20208;-78
2023/02/04 09:46:28;;;;;;;15.70;14.33;;;7.10;99.90;;;;;;4906537;29;20205;-80
2023/02/04 09:48:56;;;;;;;19.17;15.43;;;7.10;99.90;;;;;;4916679;29;20202;-79
2023/02/04 09:51:27;;;;;;;14.87;13.80;;;7.20;99.90;;;;;;4905895;29;20221;-79
2023/02/04 09:54:01;;;;;;;15.17;13.87;;;7.30;99.90;;;;;;4921304;29;20207;-79
2023/02/04 09:56:28;;;;;;;14.90;13.70;;;7.40;99.90;;;;;;4909017;29;20200;-79
2023/02/04 09:58:55;;;;;;;15.73;14.13;;;7.50;99.90;;;;;;4902698;29;20583;-79
2023/02/04 10:01:21;;;;;;;14.63;13.20;;;7.60;99.90;;;;;;4921149;29;20690;-79
2023/02/04 10:03:50;;;;;;;16.33;14.27;;;7.60;99.90;;;;;;4913106;29;20232;-79
2023/02/04 10:06:19;;;;;;;14.53;13.20;;;7.60;99.90;;;;;;4907435;29;20204;-79
2023/02/04 10:08:47;;;;;;;13.93;12.60;;;7.70;99.90;;;;;;4911269;29;20205;-78
2023/02/04 10:11:18;;;;;;;14.90;13.60;;;7.70;99.90;;;;;;4911275;29;20230;-79
2023/02/04 10:13:49;;;;;;;14.87;13.10;;;7.80;99.90;;;;;;4913938;29;20203;-79
2023/02/04 10:16:18;;;;;;;15.10;13.30;;;7.80;99.90;;;;;;4912538;29;20205;-79
2023/02/04 10:18:45;;;;;;;18.00;13.37;;;7.80;99.90;;;;;;4911251;29;20313;-79
2023/02/04 10:21:16;;;;;;;20.13;13.47;;;7.80;99.90;;;;;;4909057;29;20216;-79
2023/02/04 10:23:44;;;;;;;15.43;12.87;;;7.90;99.90;;;;;;4906246;29;20660;-78
2023/02/04 10:26:12;;;;;;;17.20;12.53;;;8.00;99.90;;;;;;4904531;29;20209;-78
2023/02/04 10:28:41;;;;;;;17.70;13.57;;;7.90;99.90;;;;;;4910673;29;20234;-78
2023/02/04 10:31:31;;;;;;;14.80;12.53;;;8.00;99.90;;;;;;4912829;29;20228;-78
2023/02/04 10:34:06;;;;;;;19.23;13.33;;;8.00;99.90;;;;;;4906478;29;20212;-78
2023/02/04 10:36:33;;;;;;;13.70;12.20;;;7.90;99.90;;;;;;4915995;29;20669;-79
2023/02/04 10:39:01;;;;;;;14.33;12.77;;;7.90;99.90;;;;;;4909490;29;20228;-78
2023/02/04 10:41:27;;;;;;;14.60;13.10;;;7.90;99.90;;;;;;4920883;29;20719;-79
2023/02/04 10:44:04;;;;;;;18.13;12.73;;;7.80;99.90;;;;;;4904064;29;20211;-78
2023/02/04 10:46:31;;;;;;;13.33;11.60;;;7.70;99.90;;;;;;4916953;29;20215;-78
2023/02/04 10:48:58;;;;;;;12.87;11.67;;;7.70;99.90;;;;;;4906502;29;20660;-79
2023/02/04 10:51:25;;;;;;;15.20;11.87;;;7.70;99.90;;;;;;4906254;29;20220;-78
2023/02/04 10:56:36;;;;;;;14.60;11.90;;;8.00;99.90;;;;;;4901731;29;20271;-79
2023/02/04 10:59:05;;;;;;;13.67;11.37;;;8.20;99.90;;;;;;4907208;29;20725;-78
2023/02/04 11:01:32;;;;;;;15.77;11.90;;;8.10;99.90;;;;;;4911559;29;20227;-78
2023/02/04 11:03:59;;;;;;;14.40;12.00;;;8.10;99.90;;;;;;4924722;29;20204;-79
2023/02/04 11:06:26;;;;;;;14.23;11.53;;;8.10;99.90;;;;;;4905563;29;20208;-79
2023/02/04 11:08:54;;;;;;;13.33;11.90;;;8.20;99.90;;;;;;4905600;29;20255;-78
2023/02/04 11:11:23;;;;;;;15.47;12.53;;;8.30;99.90;;;;;;4910246;29;20248;-79
2023/02/04 11:14:00;;;;;;;13.80;11.30;;;8.10;99.90;;;;;;4908602;29;20700;-79
2023/02/04 11:16:31;;;;;;;11.90;11.00;;;8.10;99.90;;;;;;4913909;29;20201;-78
2023/02/04 11:19:00;;;;;;;19.27;12.57;;;8.10;99.90;;;;;;4918574;29;20201;-79
2023/02/04 11:21:29;;;;;;;13.27;11.50;;;8.10;99.90;;;;;;4907562;29;20223;-79
2023/02/04 11:24:21;;;;;;;14.13;11.90;;;8.10;99.90;;;;;;4922859;29;20719;-79
2023/02/04 11:26:51;;;;;;;12.60;11.40;;;8.10;99.90;;;;;;4911042;29;20264;-78
2023/02/04 11:29:35;;;;;;;18.73;12.47;;;8.10;99.90;;;;;;4907428;29;20756;-79
2023/02/04 11:32:06;;;;;;;12.43;11.10;;;8.00;99.90;;;;;;4908732;29;20224;-78
2023/02/04 11:34:46;;;;;;;14.73;11.90;;;8.00;99.90;;;;;;4906020;29;20224;-78
2023/02/04 11:37:35;;;;;;;15.57;11.97;;;7.90;99.90;;;;;;4902146;29;20212;-79
2023/02/04 11:40:08;;;;;;;12.23;11.03;;;8.00;99.90;;;;;;4908837;29;20211;-77
2023/02/04 11:42:41;;;;;;;14.57;12.60;;;7.40;99.90;;;;;;4909732;29;20230;-78
2023/02/04 11:45:14;;;;;;;12.20;11.20;;;8.10;99.90;;;;;;4906344;29;20200;-78
2023/02/04 11:47:43;;;;;;;13.50;12.43;;;8.20;99.90;;;;;;4908467;29;20198;-79
2023/02/04 11:50:16;;;;;;;16.90;12.40;;;8.30;99.90;;;;;;4907702;29;20307;-79
2023/02/04 11:52:43;;;;;;;14.30;12.20;;;8.30;99.90;;;;;;4900801;29;20263;-79
2023/02/04 11:55:11;;;;;;;14.07;12.30;;;8.30;99.90;;;;;;4907539;29;20207;-79
2023/02/04 11:57:40;;;;;;;13.60;11.80;;;8.50;99.90;;;;;;4904116;29;20200;-79
2023/02/04 12:00:13;;;;;;;12.63;11.33;;;8.70;99.90;;;;;;4909167;29;20218;-79
2023/02/04 12:02:46;;;;;;;12.87;11.77;;;9.00;99.90;;;;;;4907451;29;20720;-79
2023/02/04 12:05:15;;;;;;;12.60;11.50;;;9.30;99.90;;;;;;4905350;29;20571;-79
2023/02/04 12:07:42;;;;;;;13.23;12.03;;;9.50;99.90;;;;;;4907760;29;20200;-80
2023/02/04 12:10:14;;;;;;;13.10;11.73;;;9.70;99.90;;;;;;4906073;29;20667;-79
2023/02/04 12:12:44;;;;;;;12.27;10.93;;;9.80;99.90;;;;;;4900106;29;20217;-79
2023/02/04 12:15:17;;;;;;;11.90;10.80;;;9.80;99.90;;;;;;4907633;29;20263;-79
2023/02/04 12:17:46;;;;;;;11.53;10.40;;;9.80;99.90;;;;;;4905309;29;20264;-79
2023/02/04 12:20:13;;;;;;;11.67;10.50;;;9.70;99.90;;;;;;4924170;29;20204;-78
2023/02/04 12:22:40;;;;;;;11.70;10.57;;;9.70;99.90;;;;;;4905196;29;20284;-80
2023/02/04 12:25:08;;;;;;;12.20;11.03;;;9.50;99.90;;;;;;4896187;29;20212;-81
2023/02/04 12:27:35;;;;;;;12.03;10.93;;;9.30;99.90;;;;;;4899048;29;20307;-84
2023/02/04 12:30:02;;;;;;;12.17;11.10;;;9.20;99.90;;;;;;4919279;29;20232;-83
2023/02/04 12:32:28;;;;;;;12.47;11.40;;;9.10;99.90;;;;;;4912864;29;20255;-83
2023/02/04 12:34:56;;;;;;;12.05;10.77;;;9.00;99.90;;;;;;4920006;29;20513;-82
2023/02/04 12:37:23;;;;;;;12.10;10.80;;;8.90;99.90;;;;;;4911301;29;20205;-85
2023/02/04 12:39:50;;;;;;;12.10;10.90;;;8.80;99.90;;;;;;4902297;29;20267;-84
2023/02/04 12:42:17;;;;;;;11.70;10.50;;;8.60;99.90;;;;;;4898924;29;20224;-77
2023/02/04 12:44:44;;;;;;;11.77;10.73;;;8.50;99.90;;;;;;4897017;29;20565;-77
2023/02/04 12:47:10;;;;;;;17.03;11.30;;;8.60;99.90;;;;;;4917006;29;20270;-78
2023/02/04 12:49:37;;;;;;;12.83;11.33;;;8.50;99.90;;;;;;4907824;29;20223;-76
2023/02/04 12:52:06;;;;;;;13.30;11.43;;;8.40;99.90;;;;;;4907498;29;20235;-83
2023/02/04 12:54:32;;;;;;;12.07;11.00;;;8.30;99.90;;;;;;4912512;29;20635;-78
2023/02/04 12:57:01;;;;;;;14.37;11.83;;;8.20;99.90;;;;;;4907558;29;20263;-78
2023/02/04 12:59:29;;;;;;;12.40;10.77;;;8.20;99.90;;;;;;4912923;29;20223;-77
2023/02/04 13:01:56;;;;;;;11.63;10.73;;;8.10;99.90;;;;;;4907291;29;20681;-76
2023/02/04 13:04:23;;;;;;;12.37;11.40;;;8.10;99.90;;;;;;4907043;29;20196;-77
2023/02/04 13:06:50;;;;;;;13.00;11.90;;;8.10;99.90;;;;;;4924434;29;20468;-79
2023/02/04 13:09:19;;;;;;;12.93;11.67;;;8.10;99.90;;;;;;4908375;29;20223;-78
2023/02/04 13:11:45;;;;;;;13.00;11.80;;;8.00;99.90;;;;;;4910618;29;20258;-82
2023/02/04 13:14:12;;;;;;;12.60;11.50;;;7.90;99.90;;;;;;4912626;29;20259;-79
2023/02/04 13:16:39;;;;;;;16.87;11.50;;;7.80;99.90;;;;;;4912076;29;20203;-82
2023/02/04 13:19:06;;;;;;;11.57;10.47;;;7.80;99.90;;;;;;4909914;29;20204;-78
2023/02/04 13:21:33;;;;;;;11.47;10.37;;;7.80;99.90;;;;;;4907159;29;20296;-78
2023/02/04 13:23:59;;;;;;;12.47;10.43;;;7.70;99.90;;;;;;4908492;29;20211;-78
2023/02/04 13:26:27;;;;;;;12.07;10.87;;;7.80;99.90;;;;;;4907104;29;20206;-78
2023/02/04 13:28:54;;;;;;;12.57;11.20;;;7.90;99.90;;;;;;4908752;29;20203;-79
2023/02/04 13:31:21;;;;;;;12.77;11.10;;;7.90;99.90;;;;;;4913283;29;20287;-77
2023/02/04 13:33:48;;;;;;;11.63;10.67;;;8.00;99.90;;;;;;4909577;29;20723;-78
2023/02/04 13:36:15;;;;;;;11.50;10.40;;;8.10;99.90;;;;;;4907837;29;20259;-78
2023/02/04 13:38:41;;;;;;;8.83;5.17;;;8.20;99.90;;;;;;4909432;29;20581;-77
2023/02/04 13:41:08;;;;;;;10.43;5.40;;;8.20;99.90;;;;;;4892543;29;20307;-77
2023/02/04 13:43:37;;;;;;;16.00;11.83;;;8.30;99.90;;;;;;4899807;29;20212;-78
2023/02/04 13:46:05;;;;;;;8.33;5.23;;;8.20;99.90;;;;;;4883993;29;20256;-76
2023/02/04 13:48:32;;;;;;;10.53;7.60;;;8.20;99.90;;;;;;4889572;29;20232;-77
2023/02/04 13:50:58;;;;;;;9.30;5.67;;;8.20;99.90;;;;;;4905912;29;20295;-78
2023/02/04 13:53:29;;;;;;;17.70;8.90;;;8.20;99.90;;;;;;4909522;29;20201;-77
2023/02/04 13:55:56;;;;;;;11.80;5.37;;;8.20;99.90;;;;;;4894756;29;20232;-78
2023/02/04 13:58:24;;;;;;;12.23;10.93;;;8.20;99.90;;;;;;4904295;29;20208;-78
2023/02/04 14:00:56;;;;;;;12.93;11.60;;;8.30;99.90;;;;;;4899199;29;20740;-80
2023/02/04 14:03:29;;;;;;;15.93;11.63;;;8.20;99.90;;;;;;4895528;29;20205;-80
2023/02/04 14:05:59;;;;;;;11.87;10.77;;;8.20;99.90;;;;;;4898425;29;20618;-79
2023/02/04 14:08:29;;;;;;;9.60;8.30;;;8.10;99.90;;;;;;4893910;29;20204;-79
2023/02/04 14:10:59;;;;;;;12.90;9.53;;;8.20;99.90;;;;;;4902108;29;20285;-78
2023/02/04 14:13:43;;;;;;;12.00;10.70;;;8.10;99.90;;;;;;4903902;29;20206;-83
2023/02/04 14:16:24;;;;;;;12.80;11.53;;;8.00;99.90;;;;;;4900536;29;20260;-84
2023/02/04 14:18:56;;;;;;;12.00;10.73;;;7.90;99.90;;;;;;4894620;29;20302;-84
2023/02/04 14:21:26;;;;;;;14.60;10.80;;;7.90;99.90;;;;;;4895649;29;20220;-84
2023/02/04 14:23:53;;;;;;;12.00;10.53;;;7.70;99.90;;;;;;4902715;29;20229;-85
2023/02/04 14:26:20;;;;;;;12.20;10.90;;;7.60;99.90;;;;;;4902167;29;20201;-85
2023/02/04 14:28:47;;;;;;;12.00;10.80;;;7.60;99.90;;;;;;4898543;29;20212;-79
2023/02/04 14:31:15;;;;;;;12.60;10.87;;;7.60;99.90;;;;;;4900898;29;20310;-80
2023/02/04 14:33:42;;;;;;;11.47;10.43;;;7.80;99.90;;;;;;4901840;29;20196;-79
2023/02/04 14:36:08;;;;;;;11.80;10.70;;;7.90;99.90;;;;;;4907370;29;20224;-80
2023/02/04 14:38:37;;;;;;;12.20;10.93;;;8.00;99.90;;;;;;4908545;29;20216;-81
2023/02/04 14:41:04;;;;;;;12.33;11.10;;;8.00;99.90;;;;;;4919406;29;20225;-80
2023/02/04 14:43:35;;;;;;;11.93;10.77;;;8.10;99.90;;;;;;4909073;29;20231;-85
2023/02/04 14:46:03;;;;;;;12.07;10.73;;;8.20;99.90;;;;;;4898354;29;20254;-83
2023/02/04 14:48:31;;;;;;;11.27;8.82;;;8.20;99.90;;;;;;4891797;29;20524;-85
2023/02/04 14:50:58;;;;;;;12.87;11.67;;;8.30;99.90;;;;;;4899369;29;20292;-86
2023/02/04 14:53:25;;;;;;;12.70;11.37;;;8.30;99.90;;;;;;4915632;29;20211;-86
2023/02/04 14:55:52;;;;;;;12.70;11.70;;;8.40;99.90;;;;;;4906731;29;20212;-81
2023/02/04 14:58:21;;;;;;;14.03;11.43;;;8.40;99.90;;;;;;4908754;29;20245;-85
2023/02/04 15:00:48;;;;;;;13.83;11.87;;;8.30;99.90;;;;;;4917319;29;20579;-84
2023/02/04 15:03:15;;;;;;;13.80;11.43;;;8.30;99.90;;;;;;4910973;29;20228;-79
2023/02/04 15:05:43;;;;;;;13.13;11.63;;;8.20;99.90;;;;;;4913615;29;20239;-79
2023/02/04 15:08:10;;;;;;;12.43;11.23;;;8.20;99.90;;;;;;4914272;29;20436;-85
2023/02/04 15:10:37;;;;;;;11.33;10.33;;;8.00;99.90;;;;;;4914289;29;20223;-88
2023/02/04 15:13:10;;;;;;;11.73;10.53;;;7.90;99.90;;;;;;4916683;29;20743;-78
2023/02/04 15:15:37;;;;;;;11.70;10.70;;;7.80;99.90;;;;;;4931572;29;20208;-85
2023/02/04 15:18:04;;;;;;;11.23;9.80;;;7.80;99.90;;;;;;4917917;29;20231;-86
2023/02/04 15:20:31;;;;;;;12.23;10.73;;;7.70;99.90;;;;;;4915117;29;20207;-86
2023/02/04 15:22:59;;;;;;;11.97;9.90;;;7.60;99.90;;;;;;4918258;29;20227;-85
2023/02/04 15:25:26;;;;;;;11.33;9.90;;;7.50;99.90;;;;;;4916065;29;20200;-86
2023/02/04 15:27:53;;;;;;;13.40;10.30;;;7.40;99.90;;;;;;4917101;29;20203;-87
2023/02/04 15:30:20;;;;;;;11.40;10.30;;;7.30;99.90;;;;;;4916439;29;20961;-85
2023/02/04 15:32:46;;;;;;;15.67;10.33;;;7.20;99.90;;;;;;4914319;29;20228;-84
2023/02/04 15:35:13;;;;;;;10.97;9.93;;;7.10;99.90;;;;;;4914143;29;20207;-83
2023/02/04 15:37:40;;;;;;;14.13;11.23;;;7.00;99.90;;;;;;4899638;29;20206;-79
2023/02/04 15:40:10;;;;;;;13.57;10.03;;;6.90;99.90;;;;;;4909676;29;20294;-79
2023/02/04 15:42:36;;;;;;;11.20;10.20;;;6.80;99.90;;;;;;4913705;29;20494;-77
2023/02/04 15:45:04;;;;;;;11.53;10.40;;;6.70;99.90;;;;;;4918426;29;20211;-77